Terminal Aerodrome Forecast
Issued by NWS Duluth, MN

Home | Current Version | Previous Version | Text Only | Print | Product List | Glossary On
Versions: 1 2 3 4 5 6 7 8 9 10 11 12 13 14 15 16 17 18 19 20 21 22 23 24 25 26 27
000
FTUS43 KDLH 290600 AAB
TAFDLH
TAF AMD
KDLH 290630Z 2907/3006 VRB05KT P6SM FEW002 WS020/20035KT
      TEMPO 2907/2909 3/4SM BR OVC002
     FM290900 15005KT 2SM BR OVC005
     FM291600 27007KT 6SM -SHRA BR OVC014
      TEMPO 2916/2920 3SM -TSRA BR OVC010CB
     FM292100 34012KT P6SM BKN050=

USA.gov is the U.S. government's official web portal to all federal, state and local government web resources and services.